createdAt,value
2023-04-08T16:01:40.940Z,18.00
2023-04-08T16:04:11.701Z,13.70
2023-04-08T16:06:40.652Z,17.40
2023-04-08T16:09:10.906Z,18.10
2023-04-08T16:11:40.128Z,16.10
2023-04-08T16:14:11.076Z,14.80
2023-04-08T16:16:41.901Z,14.70
2023-04-08T16:19:10.358Z,14.60
2023-04-08T16:21:38.836Z,13.50
2023-04-08T16:24:07.310Z,15.20
2023-04-08T16:26:35.638Z,16.10
2023-04-08T16:29:04.504Z,14.80
2023-04-08T16:31:33.293Z,14.10
2023-04-08T16:34:05.613Z,14.30
2023-04-08T16:36:34.025Z,18.50
2023-04-08T16:39:02.645Z,23.30
2023-04-08T16:41:31.101Z,20.60
2023-04-08T16:44:02.550Z,15.60
2023-04-08T16:46:31.041Z,14.50
2023-04-08T16:48:59.250Z,14.60
2023-04-08T16:51:27.684Z,15.90
2023-04-08T16:53:58.322Z,15.50
2023-04-08T16:56:28.989Z,16.10
2023-04-08T16:58:57.375Z,16.10
2023-04-08T17:01:30.802Z,17.60
2023-04-08T17:04:02.321Z,17.90
2023-04-08T17:06:44.785Z,17.90
2023-04-08T17:09:13.258Z,17.40
2023-04-08T17:11:41.767Z,15.60
2023-04-08T17:14:10.313Z,15.00
2023-04-08T17:16:38.866Z,16.40
2023-04-08T17:19:07.824Z,25.20
2023-04-08T17:21:36.164Z,45.50
2023-04-08T17:24:05.013Z,56.50
2023-04-08T17:26:34.512Z,54.60
2023-04-08T17:29:02.844Z,60.90
2023-04-08T17:31:31.737Z,58.00
2023-04-08T17:34:00.266Z,60.70
2023-04-08T17:36:30.445Z,58.80
2023-04-08T17:38:59.126Z,88.80
2023-04-08T17:41:39.112Z,68.70
2023-04-08T17:44:08.737Z,47.10
2023-04-08T17:46:37.557Z,36.30
2023-04-08T17:49:05.970Z,33.40
2023-04-08T17:51:34.677Z,26.40
2023-04-08T17:54:03.516Z,22.80
2023-04-08T17:56:33.632Z,19.70
2023-04-08T17:59:02.054Z,19.50
2023-04-08T18:01:30.628Z,17.80
2023-04-08T18:03:59.524Z,17.70
2023-04-08T18:06:29.819Z,18.30
2023-04-08T18:08:58.852Z,20.50
2023-04-08T18:11:27.561Z,21.40
2023-04-08T18:13:56.133Z,24.50
2023-04-08T18:16:24.802Z,27.00
2023-04-08T18:18:53.380Z,29.20
2023-04-08T18:21:22.373Z,32.60
2023-04-08T18:23:51.427Z,30.90
2023-04-08T18:26:20.062Z,33.20
2023-04-08T18:28:48.393Z,34.20
2023-04-08T18:31:17.022Z,34.60
2023-04-08T18:33:45.332Z,30.80
2023-04-08T18:36:18.054Z,32.00
2023-04-08T18:38:46.441Z,30.00
2023-04-08T18:41:19.004Z,31.10
2023-04-08T18:43:47.791Z,31.60
2023-04-08T18:46:16.675Z,33.70
2023-04-08T18:48:46.095Z,33.40
2023-04-08T18:51:14.429Z,34.80
2023-04-08T18:53:51.617Z,33.70
2023-04-08T18:56:24.324Z,37.30
2023-04-08T18:58:54.963Z,39.10
2023-04-08T19:01:23.786Z,42.60
2023-04-08T19:03:54.771Z,44.90
2023-04-08T19:06:23.515Z,42.60
2023-04-08T19:08:52.333Z,40.10
2023-04-08T19:11:29.085Z,37.70
2023-04-08T19:13:57.891Z,40.20
2023-04-08T19:16:26.909Z,35.80
2023-04-08T19:18:56.300Z,40.60
2023-04-08T19:21:31.485Z,39.30
2023-04-08T19:23:59.866Z,49.10
2023-04-08T19:26:28.792Z,45.30
2023-04-08T19:28:57.088Z,43.70
2023-04-08T19:31:26.197Z,44.60
2023-04-08T19:33:55.156Z,46.60
2023-04-08T19:36:23.828Z,45.40
2023-04-08T19:38:52.150Z,66.90
2023-04-08T19:41:21.789Z,68.10
2023-04-08T19:43:50.447Z,69.00
2023-04-08T19:46:19.240Z,56.10
2023-04-08T19:48:47.865Z,57.10
2023-04-08T19:51:17.512Z,56.60
2023-04-08T19:53:48.327Z,58.40
2023-04-08T19:56:17.130Z,48.50
2023-04-08T19:58:45.895Z,47.60
2023-04-08T20:01:14.783Z,47.60
2023-04-08T20:03:50.719Z,55.20
2023-04-08T20:06:20.021Z,68.60
2023-04-08T20:08:50.415Z,62.70
2023-04-08T20:11:23.685Z,61.40
2023-04-08T20:13:52.145Z,52.10
2023-04-08T20:16:21.103Z,39.70
2023-04-08T20:18:50.641Z,37.20
2023-04-08T20:21:19.440Z,28.20
2023-04-08T20:23:48.325Z,28.50
2023-04-08T20:26:17.153Z,30.00
2023-04-08T20:28:46.400Z,34.50
2023-04-08T20:31:14.986Z,33.80
2023-04-08T20:33:44.777Z,35.50
2023-04-08T20:36:14.205Z,28.30
2023-04-08T20:38:42.923Z,29.40
2023-04-08T20:41:11.804Z,42.40
2023-04-08T20:43:40.069Z,76.10
2023-04-08T20:46:08.569Z,128.60
2023-04-08T20:48:39.719Z,284.50
2023-04-08T20:51:07.991Z,354.80
2023-04-08T20:53:37.088Z,278.80
2023-04-08T20:56:12.922Z,222.20
2023-04-08T20:58:41.585Z,142.70
2023-04-08T21:01:10.263Z,113.60
2023-04-08T21:03:39.123Z,123.20
2023-04-08T21:06:07.749Z,95.60
2023-04-08T21:08:38.401Z,88.50
2023-04-08T21:11:06.871Z,71.70
2023-04-08T21:13:38.195Z,68.60
2023-04-08T21:16:07.011Z,61.00
2023-04-08T21:18:44.112Z,58.10
2023-04-08T21:21:12.622Z,52.40
2023-04-08T21:23:41.182Z,45.30
2023-04-08T21:26:15.771Z,41.50
2023-04-08T21:28:44.329Z,39.80
